PWSweather.com
Personal Weather Stations
Station Observations
SHAHALMS1
Eftra, Falkenberg, HA

EftraFalkenberg, HA

Lat: 56.85, Lon: 12.65

Elevation: 140

Station Type:

http://hem.passagen.se/risarp101

High Low Average
Temperature 39.2°F4.0°C 26.8°F-2.9°C 32.6°F0.3°C
Dew Point 28.5°F-1.9°C 16.6°F-8.6°C 21.4°F-5.9°C
Winds 11.7 mph 18.8 kmh Calm Calm 4.0 mph SSW6.4 kmh SSW
Wind Gusts 24.7 mph39.8 kmh -- 8.0 mph12.9 kmh
Humidity 81% 41% 64%
Pressure 29.95 in1014.2 mb 29.50 in999.0 mb -
Precipitation 0.00 in0.0 mm - -
Hour Temp Dew Point Humidity Winds Wind Gusts Pressure Precip Precip Rate Daily Precip Total
12:00 AM 26.8°F-2.9°C 16.6°F-8.6°C 65% Calm Calm -- 29.50 in999.0 mb 0.00 in0.0 mm 0.00 in0.0 mm 0.00 in0.0 mm
12:15 AM 26.8°F-2.9°C 16.9°F-8.4°C 66% Calm Calm -- 29.53 in1000.0 mb 0.00 in0.0 mm 0.00 in0.0 mm 0.00 in0.0 mm
12:30 AM 27.0°F-2.8°C 17.1°F-8.3°C 66% Calm Calm -- 29.53 in1000.0 mb 0.00 in0.0 mm 0.00 in0.0 mm 0.00 in0.0 mm
12:45 AM 27.0°F-2.8°C 17.5°F-8.1°C 67% Calm Calm -- 29.50 in999.0 mb 0.00 in0.0 mm 0.00 in0.0 mm 0.00 in0.0 mm
01:00 AM 27.1°F-2.7°C 18.0°F-7.8°C 68% Calm Calm -- 29.53 in1000.0 mb 0.00 in0.0 mm 0.00 in0.0 mm 0.00 in0.0 mm
01:15 AM 27.5°F-2.5°C 18.7°F-7.4°C 69% 0.1 mph W0.2 kmh W 2.5 mph4.0 kmh 29.53 in1000.0 mb 0.00 in0.0 mm 0.00 in0.0 mm 0.00 in0.0 mm
01:30 AM 27.7°F-2.4°C 19.2°F-7.1°C 70% 0.2 mph NW0.3 kmh NW 2.1 mph3.4 kmh 29.53 in1000.0 mb 0.00 in0.0 mm 0.00 in0.0 mm 0.00 in0.0 mm
01:45 AM 28.0°F-2.2°C 19.8°F-6.8°C 71% 0.3 mph W0.5 kmh W 2.1 mph3.4 kmh 29.53 in1000.0 mb 0.00 in0.0 mm 0.00 in0.0 mm 0.00 in0.0 mm
02:00 AM 28.6°F-1.9°C 20.4°F-6.4°C 71% 0.6 mph W1.0 kmh W 5.4 mph8.7 kmh 29.53 in1000.0 mb 0.00 in0.0 mm 0.00 in0.0 mm 0.00 in0.0 mm
02:15 AM 28.8°F-1.8°C 20.9°F-6.2°C 72% 1.7 mph W2.7 kmh W 5.0 mph8.0 kmh 29.53 in1000.0 mb 0.00 in0.0 mm 0.00 in0.0 mm 0.00 in0.0 mm
02:30 AM 29.3°F-1.5°C 21.7°F-5.7°C 73% 1.8 mph W2.9 kmh W 5.7 mph9.2 kmh 29.53 in1000.0 mb 0.00 in0.0 mm 0.00 in0.0 mm 0.00 in0.0 mm
02:45 AM 29.5°F-1.4°C 21.9°F-5.6°C 73% 1.2 mph W1.9 kmh W 6.8 mph10.9 kmh 29.53 in1000.0 mb 0.00 in0.0 mm 0.00 in0.0 mm 0.00 in0.0 mm
03:00 AM 29.8°F-1.2°C 22.2°F-5.4°C 73% 0.5 mph W0.8 kmh W 3.9 mph6.3 kmh 29.53 in1000.0 mb 0.00 in0.0 mm 0.00 in0.0 mm 0.00 in0.0 mm
03:15 AM 29.1°F-1.6°C 21.5°F-5.8°C 73% Calm Calm -- 29.53 in1000.0 mb 0.00 in0.0 mm 0.00 in0.0 mm 0.00 in0.0 mm
03:30 AM 29.3°F-1.5°C 22.0°F-5.6°C 74% Calm Calm 1.4 mph2.3 kmh 29.53 in1000.0 mb 0.00 in0.0 mm 0.00 in0.0 mm 0.00 in0.0 mm
03:45 AM 30.0°F-1.1°C 23.1°F-4.9°C 75% 3.1 mph W5.0 kmh W 6.8 mph10.9 kmh 29.53 in1000.0 mb 0.00 in0.0 mm 0.00 in0.0 mm 0.00 in0.0 mm
04:00 AM 31.5°F-0.3°C 25.1°F-3.8°C 77% 3.4 mph W5.5 kmh W 7.2 mph11.6 kmh 29.53 in1000.0 mb 0.00 in0.0 mm 0.00 in0.0 mm 0.00 in0.0 mm
04:15 AM 32.0°F0.0°C 25.9°F-3.4°C 78% 3.8 mph W6.1 kmh W 12.5 mph20.1 kmh 29.53 in1000.0 mb 0.00 in0.0 mm 0.00 in0.0 mm 0.00 in0.0 mm
04:30 AM 32.4°F0.2°C 26.6°F-3.0°C 79% 4.1 mph W6.6 kmh W 10.4 mph16.7 kmh 29.53 in1000.0 mb 0.00 in0.0 mm 0.00 in0.0 mm 0.00 in0.0 mm
04:45 AM 32.9°F0.5°C 27.1°F-2.7°C 79% 4.1 mph W6.6 kmh W 7.2 mph11.6 kmh 29.56 in1001.0 mb 0.00 in0.0 mm 0.00 in0.0 mm 0.00 in0.0 mm
05:00 AM 32.4°F0.2°C 26.6°F-3.0°C 79% 4.4 mph W7.1 kmh W 11.1 mph17.9 kmh 29.56 in1001.0 mb 0.00 in0.0 mm 0.00 in0.0 mm 0.00 in0.0 mm
05:15 AM 32.0°F0.0°C 25.9°F-3.4°C 78% 1.7 mph W2.7 kmh W 6.1 mph9.8 kmh 29.56 in1001.0 mb 0.00 in0.0 mm 0.00 in0.0 mm 0.00 in0.0 mm
05:30 AM 32.0°F0.0°C 25.9°F-3.4°C 78% 1.6 mph W2.6 kmh W 6.1 mph9.8 kmh 29.56 in1001.0 mb 0.00 in0.0 mm 0.00 in0.0 mm 0.00 in0.0 mm
05:45 AM 31.3°F-0.4°C 25.2°F-3.8°C 78% Calm Calm -- 29.59 in1002.0 mb 0.00 in0.0 mm 0.00 in0.0 mm 0.00 in0.0 mm
06:00 AM 30.6°F-0.8°C 24.5°F-4.2°C 78% Calm Calm -- 29.59 in1002.0 mb 0.00 in0.0 mm 0.00 in0.0 mm 0.00 in0.0 mm
06:15 AM 30.0°F-1.1°C 24.0°F-4.4°C 78% Calm Calm -- 29.59 in1002.0 mb 0.00 in0.0 mm 0.00 in0.0 mm 0.00 in0.0 mm
06:30 AM 29.7°F-1.3°C 23.9°F-4.5°C 79% Calm Calm -- 29.62 in1003.0 mb 0.00 in0.0 mm 0.00 in0.0 mm 0.00 in0.0 mm
06:45 AM 29.5°F-1.4°C 23.8°F-4.6°C 79% Calm Calm -- 29.56 in1001.0 mb 0.00 in0.0 mm 0.00 in0.0 mm 0.00 in0.0 mm
07:00 AM 30.0°F-1.1°C 24.3°F-4.3°C 79% Calm Calm -- 29.59 in1002.0 mb 0.00 in0.0 mm 0.00 in0.0 mm 0.00 in0.0 mm
07:15 AM 30.2°F-1.0°C 24.2°F-4.3°C 78% Calm Calm -- 29.59 in1002.0 mb 0.00 in0.0 mm 0.00 in0.0 mm 0.00 in0.0 mm
07:30 AM 30.2°F-1.0°C 24.5°F-4.2°C 79% Calm Calm -- 29.59 in1002.0 mb 0.00 in0.0 mm 0.00 in0.0 mm 0.00 in0.0 mm
07:45 AM 30.4°F-0.9°C 24.6°F-4.1°C 79% Calm Calm -- 29.62 in1003.0 mb 0.00 in0.0 mm 0.00 in0.0 mm 0.00 in0.0 mm
08:00 AM 31.3°F-0.4°C 25.8°F-3.4°C 80% Calm Calm -- 29.62 in1003.0 mb 0.00 in0.0 mm 0.00 in0.0 mm 0.00 in0.0 mm
08:15 AM 32.4°F0.2°C 27.2°F-2.7°C 81% Calm Calm -- 29.62 in1003.0 mb 0.00 in0.0 mm 0.00 in0.0 mm 0.00 in0.0 mm
08:29 AM 32.9°F0.5°C 27.4°F-2.6°C 80% Calm Calm -- 29.62 in1003.0 mb 0.00 in0.0 mm 0.00 in0.0 mm 0.00 in0.0 mm
08:30 AM 32.9°F0.5°C 27.4°F-2.6°C 80% Calm Calm -- 29.62 in1003.0 mb 0.00 in0.0 mm 0.00 in0.0 mm 0.00 in0.0 mm
08:31 AM 33.1°F0.6°C 27.6°F-2.4°C 80% Calm Calm -- 29.62 in1003.0 mb 0.00 in0.0 mm 0.00 in0.0 mm 0.00 in0.0 mm
08:32 AM 33.1°F0.6°C 27.6°F-2.4°C 80% Calm Calm -- 29.62 in1003.0 mb 0.00 in0.0 mm 0.00 in0.0 mm 0.00 in0.0 mm
08:33 AM 33.3°F0.7°C 27.8°F-2.3°C 80% Calm Calm -- 29.62 in1003.0 mb 0.00 in0.0 mm 0.00 in0.0 mm 0.00 in0.0 mm
08:34 AM 33.3°F0.7°C 27.8°F-2.3°C 80% Calm Calm -- 29.62 in1003.0 mb 0.00 in0.0 mm 0.00 in0.0 mm 0.00 in0.0 mm
08:45 AM 33.8°F1.0°C 28.0°F-2.2°C 79% Calm Calm -- 29.65 in1004.1 mb 0.00 in0.0 mm 0.00 in0.0 mm 0.00 in0.0 mm
09:00 AM 34.3°F1.3°C 28.5°F-1.9°C 79% Calm Calm 1.8 mph2.9 kmh 29.65 in1004.1 mb 0.00 in0.0 mm 0.00 in0.0 mm 0.00 in0.0 mm
09:15 AM 34.7°F1.5°C 28.5°F-1.9°C 78% Calm Calm -- 29.62 in1003.0 mb 0.00 in0.0 mm 0.00 in0.0 mm 0.00 in0.0 mm
09:30 AM 35.1°F1.7°C 28.3°F-2.1°C 76% Calm Calm -- 29.65 in1004.1 mb 0.00 in0.0 mm 0.00 in0.0 mm 0.00 in0.0 mm
09:45 AM 35.4°F1.9°C 25.9°F-3.4°C 68% 3.0 mph NNW4.8 kmh NNW 9.3 mph15.0 kmh 29.68 in1005.1 mb 0.00 in0.0 mm 0.00 in0.0 mm 0.00 in0.0 mm
10:00 AM 35.6°F2.0°C 21.9°F-5.6°C 57% 6.2 mph NNW10.0 kmh NNW 10.0 mph16.1 kmh 29.68 in1005.1 mb 0.00 in0.0 mm 0.00 in0.0 mm 0.00 in0.0 mm
10:15 AM 36.0°F2.2°C 20.9°F-6.2°C 54% 6.3 mph NNW10.1 kmh NNW 10.0 mph16.1 kmh 29.68 in1005.1 mb 0.00 in0.0 mm 0.00 in0.0 mm 0.00 in0.0 mm
10:30 AM 36.1°F2.3°C 20.2°F-6.6°C 52% 6.6 mph NW10.6 kmh NW 10.7 mph17.2 kmh 29.68 in1005.1 mb 0.00 in0.0 mm 0.00 in0.0 mm 0.00 in0.0 mm
10:45 AM 36.3°F2.4°C 20.8°F-6.2°C 53% 6.4 mph NNW10.3 kmh NNW 11.8 mph19.0 kmh 29.68 in1005.1 mb 0.00 in0.0 mm 0.00 in0.0 mm 0.00 in0.0 mm
11:00 AM 36.7°F2.6°C 20.7°F-6.3°C 52% 5.1 mph NW8.2 kmh NW 11.1 mph17.9 kmh 29.71 in1006.1 mb 0.00 in0.0 mm 0.00 in0.0 mm 0.00 in0.0 mm
11:15 AM 36.9°F2.7°C 20.4°F-6.4°C 51% 7.5 mph NNW12.1 kmh NNW 14.0 mph22.5 kmh 29.71 in1006.1 mb 0.00 in0.0 mm 0.00 in0.0 mm 0.00 in0.0 mm
11:30 AM 37.0°F2.8°C 19.6°F-6.9°C 49% 7.8 mph NNW12.6 kmh NNW 12.9 mph20.8 kmh 29.71 in1006.1 mb 0.00 in0.0 mm 0.00 in0.0 mm 0.00 in0.0 mm
11:45 AM 37.2°F2.9°C 19.8°F-6.8°C 49% 5.5 mph NW8.9 kmh NW 10.4 mph16.7 kmh 29.71 in1006.1 mb 0.00 in0.0 mm 0.00 in0.0 mm 0.00 in0.0 mm
12:00 PM 37.2°F2.9°C 19.3°F-7.1°C 48% 8.5 mph NW13.7 kmh NW 12.9 mph20.8 kmh 29.68 in1005.1 mb 0.00 in0.0 mm 0.00 in0.0 mm 0.00 in0.0 mm
12:15 PM 37.6°F3.1°C 19.1°F-7.2°C 47% 6.8 mph NW10.9 kmh NW 11.8 mph19.0 kmh 29.71 in1006.1 mb 0.00 in0.0 mm 0.00 in0.0 mm 0.00 in0.0 mm
12:30 PM 37.9°F3.3°C 20.5°F-6.4°C 49% 4.7 mph NW7.6 kmh NW 11.8 mph19.0 kmh 29.71 in1006.1 mb 0.00 in0.0 mm 0.00 in0.0 mm 0.00 in0.0 mm
12:45 PM 38.1°F3.4°C 20.1°F-6.6°C 48% 3.6 mph NW5.8 kmh NW 9.3 mph15.0 kmh 29.71 in1006.1 mb 0.00 in0.0 mm 0.00 in0.0 mm 0.00 in0.0 mm
01:00 PM 38.8°F3.8°C 19.3°F-7.1°C 45% 7.5 mph NW12.1 kmh NW 13.6 mph21.9 kmh 29.71 in1006.1 mb 0.00 in0.0 mm 0.00 in0.0 mm 0.00 in0.0 mm
01:15 PM 39.0°F3.9°C 17.8°F-7.9°C 42% 7.6 mph NW12.2 kmh NW 14.0 mph22.5 kmh 29.74 in1007.1 mb 0.00 in0.0 mm 0.00 in0.0 mm 0.00 in0.0 mm
01:30 PM 39.2°F4.0°C 17.4°F-8.1°C 41% 10.6 mph NNW17.1 kmh NNW 17.5 mph28.2 kmh 29.74 in1007.1 mb 0.00 in0.0 mm 0.00 in0.0 mm 0.00 in0.0 mm
01:45 PM 39.2°F4.0°C 19.1°F-7.2°C 44% 6.1 mph NW9.8 kmh NW 11.8 mph19.0 kmh 29.74 in1007.1 mb 0.00 in0.0 mm 0.00 in0.0 mm 0.00 in0.0 mm
02:00 PM 39.0°F3.9°C 19.4°F-7.0°C 45% 10.9 mph NW17.5 kmh NW 18.3 mph29.5 kmh 29.77 in1008.1 mb 0.00 in0.0 mm 0.00 in0.0 mm 0.00 in0.0 mm
02:15 PM 38.7°F3.7°C 19.6°F-6.9°C 46% 7.9 mph NW12.7 kmh NW 17.5 mph28.2 kmh 29.77 in1008.1 mb 0.00 in0.0 mm 0.00 in0.0 mm 0.00 in0.0 mm
02:30 PM 38.7°F3.7°C 19.6°F-6.9°C 46% 7.7 mph NW12.4 kmh NW 17.5 mph28.2 kmh 29.80 in1009.1 mb 0.00 in0.0 mm 0.00 in0.0 mm 0.00 in0.0 mm
02:45 PM 38.5°F3.6°C 21.0°F-6.1°C 49% 9.5 mph NW15.3 kmh NW 19.3 mph31.1 kmh 29.77 in1008.1 mb 0.00 in0.0 mm 0.00 in0.0 mm 0.00 in0.0 mm
03:00 PM 37.8°F3.2°C 20.3°F-6.5°C 49% 8.9 mph NW14.3 kmh NW 20.8 mph33.5 kmh 29.77 in1008.1 mb 0.00 in0.0 mm 0.00 in0.0 mm 0.00 in0.0 mm
03:15 PM 37.6°F3.1°C 20.1°F-6.6°C 49% 7.2 mph NW11.6 kmh NW 15.7 mph25.3 kmh 29.77 in1008.1 mb 0.00 in0.0 mm 0.00 in0.0 mm 0.00 in0.0 mm
03:30 PM 37.0°F2.8°C 19.6°F-6.9°C 49% 10.6 mph NW17.1 kmh NW 24.7 mph39.8 kmh 29.80 in1009.1 mb 0.00 in0.0 mm 0.00 in0.0 mm 0.00 in0.0 mm
03:45 PM 36.7°F2.6°C 19.8°F-6.8°C 50% 11.7 mph NW18.8 kmh NW 24.3 mph39.1 kmh 29.80 in1009.1 mb 0.00 in0.0 mm 0.00 in0.0 mm 0.00 in0.0 mm
04:00 PM 36.3°F2.4°C 20.4°F-6.4°C 52% 9.3 mph NW15.0 kmh NW 21.1 mph34.0 kmh 29.80 in1009.1 mb 0.00 in0.0 mm 0.00 in0.0 mm 0.00 in0.0 mm
04:15 PM 36.1°F2.3°C 20.6°F-6.3°C 53% 7.5 mph NW12.1 kmh NW 14.0 mph22.5 kmh 29.80 in1009.1 mb 0.00 in0.0 mm 0.00 in0.0 mm 0.00 in0.0 mm
04:28 PM 36.0°F2.2°C 20.0°F-6.7°C 52% 8.0 mph NW12.9 kmh NW 10.1 mph16.3 kmh 29.80 in1009.1 mb 0.00 in0.0 mm 0.00 in0.0 mm 0.00 in0.0 mm
04:30 PM 36.0°F2.2°C 20.0°F-6.7°C 52% 9.0 mph NW14.5 kmh NW 12.5 mph20.1 kmh 29.80 in1009.1 mb 0.00 in0.0 mm 0.00 in0.0 mm 0.00 in0.0 mm
04:31 PM 36.0°F2.2°C 20.0°F-6.7°C 52% 8.7 mph NW14.0 kmh NW 12.5 mph20.1 kmh 29.80 in1009.1 mb 0.00 in0.0 mm 0.00 in0.0 mm 0.00 in0.0 mm
04:32 PM 36.0°F2.2°C 20.0°F-6.7°C 52% 8.1 mph NW13.0 kmh NW 12.5 mph20.1 kmh 29.80 in1009.1 mb 0.00 in0.0 mm 0.00 in0.0 mm 0.00 in0.0 mm
04:33 PM 36.0°F2.2°C 20.0°F-6.7°C 52% 7.6 mph NW12.2 kmh NW 12.5 mph20.1 kmh 29.80 in1009.1 mb 0.00 in0.0 mm 0.00 in0.0 mm 0.00 in0.0 mm
04:45 PM 35.4°F1.9°C 20.0°F-6.7°C 53% 8.2 mph NW13.2 kmh NW 16.8 mph27.0 kmh 29.80 in1009.1 mb 0.00 in0.0 mm 0.00 in0.0 mm 0.00 in0.0 mm
05:00 PM 34.9°F1.6°C 19.5°F-6.9°C 53% 7.3 mph NW11.7 kmh NW 16.8 mph27.0 kmh 29.80 in1009.1 mb 0.00 in0.0 mm 0.00 in0.0 mm 0.00 in0.0 mm
05:15 PM 34.3°F1.3°C 19.4°F-7.0°C 54% 7.2 mph NW11.6 kmh NW 17.2 mph27.7 kmh 29.80 in1009.1 mb 0.00 in0.0 mm 0.00 in0.0 mm 0.00 in0.0 mm
05:30 PM 33.8°F1.0°C 18.9°F-7.3°C 54% 5.8 mph NW9.3 kmh NW 12.9 mph20.8 kmh 29.83 in1010.2 mb 0.00 in0.0 mm 0.00 in0.0 mm 0.00 in0.0 mm
05:45 PM 33.3°F0.7°C 18.8°F-7.3°C 55% 7.1 mph NW11.4 kmh NW 14.0 mph22.5 kmh 29.83 in1010.2 mb 0.00 in0.0 mm 0.00 in0.0 mm 0.00 in0.0 mm
06:00 PM 32.5°F0.3°C 18.6°F-7.4°C 56% 5.9 mph NW9.5 kmh NW 12.5 mph20.1 kmh 29.83 in1010.2 mb 0.00 in0.0 mm 0.00 in0.0 mm 0.00 in0.0 mm
06:15 PM 32.2°F0.1°C 18.6°F-7.4°C 57% 5.1 mph NW8.2 kmh NW 12.2 mph19.6 kmh 29.83 in1010.2 mb 0.00 in0.0 mm 0.00 in0.0 mm 0.00 in0.0 mm
06:30 PM 31.8°F-0.1°C 18.7°F-7.4°C 58% 4.6 mph NW7.4 kmh NW 10.4 mph16.7 kmh 29.80 in1009.1 mb 0.00 in0.0 mm 0.00 in0.0 mm 0.00 in0.0 mm
06:45 PM 31.5°F-0.3°C 18.4°F-7.6°C 58% 3.2 mph WNW5.1 kmh WNW 8.9 mph14.3 kmh 29.83 in1010.2 mb 0.00 in0.0 mm 0.00 in0.0 mm 0.00 in0.0 mm
07:00 PM 31.3°F-0.4°C 19.0°F-7.2°C 60% 4.7 mph WNW7.6 kmh WNW 9.7 mph15.6 kmh 29.83 in1010.2 mb 0.00 in0.0 mm 0.00 in0.0 mm 0.00 in0.0 mm
07:15 PM 31.5°F-0.3°C 20.3°F-6.5°C 63% 6.4 mph NW10.3 kmh NW 16.5 mph26.6 kmh 29.86 in1011.2 mb 0.00 in0.0 mm 0.00 in0.0 mm 0.00 in0.0 mm
07:30 PM 31.3°F-0.4°C 20.1°F-6.6°C 63% 6.0 mph NW9.7 kmh NW 13.6 mph21.9 kmh 29.89 in1012.2 mb 0.00 in0.0 mm 0.00 in0.0 mm 0.00 in0.0 mm
07:45 PM 30.9°F-0.6°C 20.2°F-6.6°C 64% 5.6 mph NW9.0 kmh NW 10.4 mph16.7 kmh 29.89 in1012.2 mb 0.00 in0.0 mm 0.00 in0.0 mm 0.00 in0.0 mm
08:00 PM 30.7°F-0.7°C 20.4°F-6.4°C 65% 7.0 mph NW11.3 kmh NW 12.5 mph20.1 kmh 29.89 in1012.2 mb 0.00 in0.0 mm 0.00 in0.0 mm 0.00 in0.0 mm
08:15 PM 30.7°F-0.7°C 20.4°F-6.4°C 65% 6.2 mph NW10.0 kmh NW 12.5 mph20.1 kmh 29.89 in1012.2 mb 0.00 in0.0 mm 0.00 in0.0 mm 0.00 in0.0 mm
08:30 PM 30.2°F-1.0°C 19.8°F-6.8°C 65% 3.3 mph NW5.3 kmh NW 9.7 mph15.6 kmh 29.89 in1012.2 mb 0.00 in0.0 mm 0.00 in0.0 mm 0.00 in0.0 mm
08:45 PM 29.7°F-1.3°C 19.3°F-7.1°C 65% 2.4 mph NW3.9 kmh NW 6.1 mph9.8 kmh 29.89 in1012.2 mb 0.00 in0.0 mm 0.00 in0.0 mm 0.00 in0.0 mm
09:00 PM 29.5°F-1.4°C 19.2°F-7.1°C 65% 1.2 mph NW1.9 kmh NW 8.9 mph14.3 kmh 29.89 in1012.2 mb 0.00 in0.0 mm 0.00 in0.0 mm 0.00 in0.0 mm
09:15 PM 28.9°F-1.7°C 18.6°F-7.4°C 65% 1.3 mph W2.1 kmh W 5.4 mph8.7 kmh 29.92 in1013.2 mb 0.00 in0.0 mm 0.00 in0.0 mm 0.00 in0.0 mm
09:30 PM 28.8°F-1.8°C 18.8°F-7.3°C 66% 0.3 mph NW0.5 kmh NW 3.9 mph6.3 kmh 29.92 in1013.2 mb 0.00 in0.0 mm 0.00 in0.0 mm 0.00 in0.0 mm
09:45 PM 28.6°F-1.9°C 19.0°F-7.2°C 67% Calm Calm -- 29.92 in1013.2 mb 0.00 in0.0 mm 0.00 in0.0 mm 0.00 in0.0 mm
10:00 PM 28.2°F-2.1°C 18.7°F-7.4°C 67% Calm Calm -- 29.92 in1013.2 mb 0.00 in0.0 mm 0.00 in0.0 mm 0.00 in0.0 mm
10:15 PM 27.9°F-2.3°C 18.7°F-7.4°C 68% Calm Calm -- 29.92 in1013.2 mb 0.00 in0.0 mm 0.00 in0.0 mm 0.00 in0.0 mm
10:30 PM 27.3°F-2.6°C 18.1°F-7.7°C 68% Calm Calm -- 29.95 in1014.2 mb 0.00 in0.0 mm 0.00 in0.0 mm 0.00 in0.0 mm
10:45 PM 27.3°F-2.6°C 18.1°F-7.7°C 68% Calm Calm -- 29.92 in1013.2 mb 0.00 in0.0 mm 0.00 in0.0 mm 0.00 in0.0 mm
11:00 PM 27.1°F-2.7°C 18.0°F-7.8°C 68% Calm Calm -- 29.92 in1013.2 mb 0.00 in0.0 mm 0.00 in0.0 mm 0.00 in0.0 mm
11:15 PM 27.1°F-2.7°C 18.0°F-7.8°C 68% Calm Calm -- 29.95 in1014.2 mb 0.00 in0.0 mm 0.00 in0.0 mm 0.00 in0.0 mm
11:30 PM 27.0°F-2.8°C 18.1°F-7.7°C 69% Calm Calm -- 29.95 in1014.2 mb 0.00 in0.0 mm 0.00 in0.0 mm 0.00 in0.0 mm
11:45 PM 26.8°F-2.9°C 18.0°F-7.8°C 69% Calm Calm -- 29.95 in1014.2 mb 0.00 in0.0 mm 0.00 in0.0 mm 0.00 in0.0 mm